Time;durP1;ratioP1;P1;durP2;ratioP2;P2;SDS_P1;SDS_P2;PMS_P1;PMS_P2;Temp;Humidity;BMP_temperature;BMP_pressure;BME280_temperature;BME280_humidity;BME280_pressure;Samples;Min_cycle;Max_cycle;Signal;HPM_P1;HPM_P2
2021/04/19 00:00:54;;;;;;;17.35;7.70;;;;;;;10.61;80.65;101484.81;5069045;28;20021;-78
2021/04/19 00:03:21;;;;;;;18.98;8.07;;;;;;;10.61;80.45;101483.00;5073014;28;20036;-79
2021/04/19 00:05:47;;;;;;;17.85;8.00;;;;;;;10.62;80.30;101486.53;5064081;28;20055;-79
2021/04/19 00:08:13;;;;;;;16.17;6.72;;;;;;;10.59;80.45;101475.97;5070514;28;20063;-78
2021/04/19 00:10:38;;;;;;;16.27;7.30;;;;;;;10.52;80.61;101476.28;5069411;28;20111;-79
2021/04/19 00:13:04;;;;;;;11.90;6.85;;;;;;;10.59;80.13;101486.72;5071052;28;20249;-79
2021/04/19 00:15:31;;;;;;;11.05;6.65;;;;;;;10.52;80.66;101478.97;5064931;28;20736;-79
2021/04/19 00:17:57;;;;;;;14.57;7.38;;;;;;;10.46;80.90;101481.97;5071087;28;20032;-79
2021/04/19 00:20:24;;;;;;;14.65;6.53;;;;;;;10.53;80.96;101477.16;5051905;28;20074;-78
2021/04/19 00:22:50;;;;;;;13.68;6.10;;;;;;;10.46;80.96;101473.94;5067329;28;20034;-80
2021/04/19 00:25:16;;;;;;;16.58;7.32;;;;;;;10.48;80.45;101480.09;5049526;28;20485;-82
2021/04/19 00:27:41;;;;;;;11.57;6.63;;;;;;;10.51;80.39;101474.53;5070598;28;20066;-78
2021/04/19 00:30:07;;;;;;;14.48;7.07;;;;;;;10.46;79.94;101473.06;5066923;28;20037;-79
2021/04/19 00:32:33;;;;;;;13.23;6.03;;;;;;;10.46;80.12;101476.59;5054912;28;20089;-79
2021/04/19 00:34:59;;;;;;;16.48;6.95;;;;;;;10.43;80.10;101479.44;5071744;28;20039;-79
2021/04/19 00:37:24;;;;;;;12.63;6.22;;;;;;;10.38;80.42;101475.25;5071705;28;20060;-78
2021/04/19 00:39:49;;;;;;;13.73;6.82;;;;;;;10.41;79.98;101472.44;5050168;28;20430;-79
2021/04/19 00:42:17;;;;;;;10.15;6.30;;;;;;;10.43;79.61;101475.91;5066937;28;20086;-79
2021/04/19 00:44:45;;;;;;;11.85;6.18;;;;;;;10.41;79.44;101480.47;5066213;28;20089;-79
2021/04/19 00:47:12;;;;;;;16.60;6.22;;;;;;;10.31;79.49;101473.84;5067876;28;20025;-78
2021/04/19 00:49:38;;;;;;;14.90;6.95;;;;;;;10.30;79.42;101469.44;5072844;28;20469;-78
2021/04/19 00:52:05;;;;;;;14.57;6.68;;;;;;;10.31;79.78;101463.97;5065947;28;20029;-78
2021/04/19 00:54:30;;;;;;;14.32;6.68;;;;;;;10.30;79.69;101467.63;5069133;28;20400;-78
2021/04/19 00:56:56;;;;;;;11.55;5.97;;;;;;;10.23;80.15;101470.69;5070908;28;20028;-79
2021/04/19 00:59:22;;;;;;;16.23;6.57;;;;;;;10.26;79.82;101466.03;5070639;28;20485;-78
2021/04/19 01:01:48;;;;;;;15.32;6.30;;;;;;;10.34;79.18;101466.50;5078895;28;20024;-78
2021/04/19 01:04:14;;;;;;;14.63;6.95;;;;;;;10.13;79.91;101464.88;5051663;28;20539;-79
2021/04/19 01:06:40;;;;;;;12.73;6.63;;;;;;;10.20;79.08;101462.78;5068668;28;20370;-79
2021/04/19 01:09:07;;;;;;;12.43;6.20;;;;;;;10.16;78.41;101467.41;5069114;28;20111;-79
2021/04/19 01:11:32;;;;;;;9.85;6.28;;;;;;;10.07;78.75;101460.69;5063872;28;20128;-79
2021/04/19 01:14:00;;;;;;;13.48;5.95;;;;;;;10.13;78.37;101467.56;5067317;28;20029;-79
2021/04/19 01:16:27;;;;;;;12.55;5.75;;;;;;;10.08;78.24;101459.75;5070382;28;20123;-78
2021/04/19 01:18:53;;;;;;;16.48;6.30;;;;;;;10.05;78.96;101462.59;5068143;28;20112;-78
2021/04/19 01:21:20;;;;;;;12.55;6.03;;;;;;;10.05;78.08;101465.28;5064719;28;20032;-79
2021/04/19 01:23:47;;;;;;;12.45;6.13;;;;;;;10.09;78.23;101460.63;5068394;28;20085;-79
2021/04/19 01:26:12;;;;;;;11.63;5.72;;;;;;;9.96;78.23;101465.72;5068417;28;20056;-79
2021/04/19 01:28:38;;;;;;;18.88;7.32;;;;;;;9.88;78.51;101459.00;5066360;28;20050;-78
2021/04/19 01:31:03;;;;;;;17.70;6.00;;;;;;;9.88;78.76;101450.94;5070947;28;20050;-78
2021/04/19 01:33:35;;;;;;;12.40;6.32;;;;;;;9.95;78.18;101457.75;5065696;28;20039;-79
2021/04/19 01:36:01;;;;;;;15.48;6.28;;;;;;;10.02;78.04;101449.31;5062979;28;20124;-80
2021/04/19 01:38:26;;;;;;;11.95;5.63;;;;;;;9.97;78.35;101459.44;5067030;28;20500;-78
2021/04/19 01:40:56;;;;;;;13.02;5.72;;;;;;;9.85;78.73;101445.75;5058044;28;20021;-78
2021/04/19 01:43:23;;;;;;;14.70;5.32;;;;;;;9.88;78.95;101445.59;5071650;28;20028;-78
2021/04/19 01:45:52;;;;;;;10.43;5.53;;;;;;;9.81;78.80;101449.53;5052403;28;20454;-78
2021/04/19 01:48:24;;;;;;;15.40;6.57;;;;;;;9.81;79.05;101449.53;5068247;28;20480;-78
2021/04/19 01:50:51;;;;;;;10.40;6.05;;;;;;;9.81;78.85;101438.81;5063240;28;20164;-79
2021/04/19 01:53:17;;;;;;;13.43;6.88;;;;;;;9.84;78.92;101442.19;5061257;28;20020;-79
2021/04/19 01:55:43;;;;;;;17.13;7.13;;;;;;;9.75;79.28;101440.84;5064921;28;20025;-78
2021/04/19 01:58:14;;;;;;;9.90;5.80;;;;;;;9.78;79.29;101441.63;5068318;28;20029;-78
2021/04/19 02:00:43;;;;;;;12.60;5.93;;;;;;;9.75;79.70;101438.16;5066136;28;20036;-79
2021/04/19 02:03:49;;;;;;;17.83;6.30;;;;;;;9.77;79.62;101447.94;5053432;28;20036;-78
2021/04/19 02:06:37;;;;;;;12.50;6.15;;;;;;;9.62;80.00;101445.09;5057096;28;20028;-78
2021/04/19 02:09:37;;;;;;;14.70;6.70;;;;;;;9.61;79.62;101438.00;5066635;28;20040;-79
2021/04/19 02:12:28;;;;;;;10.25;5.57;;;;;;;9.61;79.92;101446.03;5056687;28;20080;-78
2021/04/19 02:15:09;;;;;;;13.18;6.60;;;;;;;9.64;79.65;101442.31;5067726;28;20035;-79
2021/04/19 02:17:56;;;;;;;14.77;6.28;;;;;;;9.62;80.08;101445.09;5064245;28;20042;-78
2021/04/19 02:20:31;;;;;;;12.88;5.68;;;;;;;9.68;80.14;101450.16;5064552;28;20036;-79
2021/04/19 02:22:59;;;;;;;16.33;6.60;;;;;;;9.54;80.53;101433.00;5064085;28;20119;-78
2021/04/19 02:25:42;;;;;;;13.50;6.85;;;;;;;9.59;80.12;101433.63;5067376;28;20116;-80
2021/04/19 02:28:13;;;;;;;15.32;6.70;;;;;;;9.47;80.25;101437.78;5050191;28;20028;-78
2021/04/19 02:30:42;;;;;;;15.27;7.35;;;;;;;9.53;80.46;101429.44;5066778;28;20029;-79
2021/04/19 02:33:16;;;;;;;11.48;5.82;;;;;;;9.56;80.01;101434.66;5047446;28;20042;-79
2021/04/19 02:35:44;;;;;;;13.38;6.90;;;;;;;9.57;80.32;101435.50;5063876;28;20115;-78
2021/04/19 02:38:16;;;;;;;12.35;6.40;;;;;;;9.54;80.89;101428.50;5061782;28;20099;-78
2021/04/19 02:40:42;;;;;;;14.60;7.17;;;;;;;9.57;80.89;101425.66;5064080;28;20614;-79
2021/04/19 02:43:09;;;;;;;12.32;6.57;;;;;;;9.52;81.63;101426.81;5067321;28;20166;-78
2021/04/19 02:45:41;;;;;;;14.65;6.65;;;;;;;9.47;82.04;101416.34;5068667;28;20024;-78
2021/04/19 02:48:14;;;;;;;14.02;6.60;;;;;;;9.60;81.67;101420.16;5064726;28;20025;-79
2021/04/19 02:50:48;;;;;;;11.15;6.05;;;;;;;9.57;81.69;101425.66;5043998;28;20512;-78
2021/04/19 02:53:14;;;;;;;13.15;6.25;;;;;;;9.44;82.22;101427.22;5067659;28;20104;-79
2021/04/19 02:55:40;;;;;;;13.80;6.65;;;;;;;9.42;82.15;101434.47;5064373;28;20631;-79
2021/04/19 02:58:09;;;;;;;15.93;7.15;;;;;;;9.45;82.03;101434.28;5067745;28;20378;-80
2021/04/19 03:00:42;;;;;;;13.52;6.07;;;;;;;9.35;81.95;101427.66;5060694;28;20032;-79
2021/04/19 03:03:12;;;;;;;19.35;7.70;;;;;;;9.35;83.03;101435.69;5063572;28;20419;-79
2021/04/19 03:05:44;;;;;;;19.05;6.60;;;;;;;9.32;83.79;101433.13;5057277;28;20060;-79
2021/04/19 03:08:16;;;;;;;14.63;6.45;;;;;;;9.37;84.48;101432.94;5068074;28;20025;-78
2021/04/19 03:10:54;;;;;;;23.08;7.43;;;;;;;9.38;84.71;101435.53;5052390;28;20028;-79
2021/04/19 03:13:22;;;;;;;17.40;7.28;;;;;;;9.40;85.03;101439.00;5047549;28;20033;-79
2021/04/19 03:15:51;;;;;;;16.00;9.10;;;;;;;9.30;85.74;101437.72;5058712;28;20109;-78
2021/04/19 03:18:19;;;;;;;16.98;7.35;;;;;;;9.30;85.96;101432.38;5066798;28;20029;-79
2021/04/19 03:20:51;;;;;;;14.32;7.00;;;;;;;9.39;85.67;101442.63;5048945;28;20423;-78
2021/04/19 03:23:24;;;;;;;13.25;7.03;;;;;;;9.33;85.84;101437.56;5066513;28;20497;-77
2021/04/19 03:25:55;;;;;;;18.38;7.50;;;;;;;9.26;86.06;101436.97;5063224;28;20033;-79
2021/04/19 03:28:24;;;;;;;16.35;8.38;;;;;;;9.19;86.15;101435.56;5066013;28;20475;-79
2021/04/19 03:30:53;;;;;;;14.88;7.00;;;;;;;9.15;85.85;101438.44;5066505;28;20030;-79
2021/04/19 03:33:25;;;;;;;20.27;8.13;;;;;;;9.06;86.25;101439.75;5042253;28;20024;-79
2021/04/19 03:35:52;;;;;;;17.65;7.43;;;;;;;9.08;86.38;101445.00;5057875;28;20465;-79
2021/04/19 03:38:21;;;;;;;18.38;9.77;;;;;;;9.02;86.66;101442.63;5065607;28;20191;-78
2021/04/19 03:40:49;;;;;;;14.32;7.70;;;;;;;9.11;86.06;101443.06;5059607;28;20039;-80
2021/04/19 03:43:22;;;;;;;18.65;7.30;;;;;;;9.08;85.23;101450.38;5062538;28;20485;-78
2021/04/19 03:46:05;;;;;;;14.55;7.40;;;;;;;9.08;85.10;101448.56;5043356;28;20079;-79
2021/04/19 03:49:07;;;;;;;16.45;8.35;;;;;;;8.98;85.82;101451.75;5067287;28;20048;-79
2021/04/19 03:51:44;;;;;;;20.05;8.60;;;;;;;9.01;85.65;101451.63;5056064;28;20028;-79
2021/04/19 03:54:13;;;;;;;16.20;7.53;;;;;;;8.95;86.06;101451.91;5050848;28;20497;-78
2021/04/19 03:56:40;;;;;;;15.27;7.85;;;;;;;8.95;86.67;101449.22;5065270;28;20028;-78
2021/04/19 03:59:17;;;;;;;23.52;7.82;;;;;;;8.99;86.11;101442.78;5063928;28;20028;-78
2021/04/19 04:01:51;;;;;;;21.20;8.90;;;;;;;9.00;86.41;101440.03;5050589;28;20549;-80
2021/04/19 04:04:19;;;;;;;23.40;8.77;;;;;;;9.01;86.55;101436.38;5048191;28;20436;-78
2021/04/19 04:07:02;;;;;;;17.52;7.65;;;;;;;8.96;87.10;101440.22;5055354;28;20043;-80
2021/04/19 04:09:36;;;;;;;17.80;8.45;;;;;;;8.95;86.76;101441.19;5065615;28;20025;-78
2021/04/19 04:12:03;;;;;;;20.30;8.57;;;;;;;8.89;87.29;101437.81;5063662;28;20036;-78
2021/04/19 04:14:47;;;;;;;20.65;8.20;;;;;;;8.93;86.97;101441.25;5066840;28;20038;-77
2021/04/19 04:17:13;;;;;;;23.25;8.43;;;;;;;8.92;86.95;101442.19;5068033;28;20099;-78
2021/04/19 04:19:58;;;;;;;17.27;8.30;;;;;;;8.91;87.17;101452.03;5065101;28;20044;-80
2021/04/19 04:22:24;;;;;;;18.02;8.90;;;;;;;8.84;87.80;101455.91;5084420;28;20025;-79
2021/04/19 04:24:51;;;;;;;17.10;8.45;;;;;;;8.85;87.40;101449.63;5066338;28;20093;-77
2021/04/19 04:27:18;;;;;;;18.23;8.65;;;;;;;8.84;87.64;101453.25;5068693;28;20043;-78
2021/04/19 04:29:44;;;;;;;16.95;7.90;;;;;;;8.79;87.75;101441.00;5065536;28;20081;-79
2021/04/19 04:32:22;;;;;;;26.58;12.88;;;;;;;8.80;88.08;101440.06;5062722;28;20090;-78
2021/04/19 04:34:55;;;;;;;24.92;11.73;;;;;;;8.79;88.16;101441.88;5051753;28;20041;-79
2021/04/19 04:37:21;;;;;;;19.38;8.50;;;;;;;8.84;87.62;101444.34;5064223;28;20388;-78
2021/04/19 04:40:00;;;;;;;31.95;13.65;;;;;;;8.82;87.84;101446.25;5067082;28;20504;-78
2021/04/19 04:42:28;;;;;;;38.10;15.77;;;;;;;8.87;87.60;101445.09;5065589;28;20035;-78
2021/04/19 04:44:54;;;;;;;21.10;9.65;;;;;;;8.88;87.24;101440.59;5067301;28;20075;-80
2021/04/19 04:47:26;;;;;;;14.85;9.35;;;;;;;8.93;87.18;101444.81;5068334;28;20078;-79
2021/04/19 04:50:22;;;;;;;24.75;10.25;;;;;;;8.91;87.44;101446.66;5065035;28;20085;-78
2021/04/19 04:52:54;;;;;;;22.23;9.10;;;;;;;8.85;87.79;101446.94;5050331;28;20401;-80
2021/04/19 04:55:22;;;;;;;17.55;9.13;;;;;;;8.84;88.23;101450.56;5064800;28;20086;-78
2021/04/19 04:57:49;;;;;;;22.50;9.25;;;;;;;8.91;87.73;101446.66;5064346;28;20033;-78
2021/04/19 05:00:17;;;;;;;23.08;9.63;;;;;;;8.97;87.03;101448.19;5064127;28;20392;-78
2021/04/19 05:02:45;;;;;;;18.73;8.68;;;;;;;8.80;88.19;101448.97;5065188;28;20041;-79
2021/04/19 05:05:13;;;;;;;18.55;9.85;;;;;;;8.76;88.01;101451.88;5067768;28;20273;-78
2021/04/19 05:07:41;;;;;;;21.60;9.43;;;;;;;8.79;88.10;101449.03;5067798;28;20089;-78
2021/04/19 05:10:08;;;;;;;21.75;10.07;;;;;;;8.83;88.40;101443.47;5065410;28;20095;-77
2021/04/19 05:12:33;;;;;;;22.17;9.05;;;;;;;8.78;88.84;101450.84;5069673;28;20098;-77
2021/04/19 05:15:01;;;;;;;22.90;10.40;;;;;;;8.72;89.04;101451.13;5060473;28;20472;-79
2021/04/19 05:17:27;;;;;;;21.75;10.00;;;;;;;8.70;89.59;101455.66;5071407;28;20067;-77
2021/04/19 05:19:53;;;;;;;24.40;9.80;;;;;;;8.68;89.59;101446.84;5070028;28;20074;-79
2021/04/19 05:22:19;;;;;;;27.48;9.95;;;;;;;8.64;89.91;101436.38;5069952;28;20453;-78
2021/04/19 05:24:44;;;;;;;62.30;22.25;;;;;;;8.64;90.14;101439.88;5062088;28;20029;-77
2021/04/19 05:27:13;;;;;;;104.30;35.13;;;;;;;8.70;91.14;101447.63;5068429;28;20295;-78
2021/04/19 05:29:41;;;;;;;36.72;14.02;;;;;;;8.65;92.91;101455.00;5058993;28;20662;-79
2021/04/19 05:32:08;;;;;;;20.27;10.52;;;;;;;8.66;93.95;101453.19;5067352;28;20048;-79
2021/04/19 05:34:34;;;;;;;24.35;11.10;;;;;;;8.59;95.26;101460.63;5067283;28;20056;-78
2021/04/19 05:37:01;;;;;;;23.08;11.63;;;;;;;8.51;96.33;101466.34;5070798;28;20062;-78
2021/04/19 05:39:28;;;;;;;24.42;11.50;;;;;;;8.46;97.05;101464.78;5068379;28;20024;-77
2021/04/19 05:41:54;;;;;;;27.08;11.90;;;;;;;8.54;97.96;101457.28;5065205;28;20076;-79
2021/04/19 05:44:19;;;;;;;33.95;14.75;;;;;;;8.56;98.98;101458.09;5065246;28;20021;-78
2021/04/19 05:46:45;;;;;;;31.75;14.73;;;;;;;8.50;99.88;101461.06;5064220;28;20090;-80
2021/04/19 05:49:11;;;;;;;38.58;18.48;;;;;;;8.49;100.00;101454.81;5079652;28;20220;-77
2021/04/19 05:51:43;;;;;;;36.35;17.20;;;;;;;8.51;100.00;101452.97;5063249;28;20040;-79
2021/04/19 05:54:10;;;;;;;44.13;18.88;;;;;;;8.49;100.00;101461.97;5061520;28;20029;-79
2021/04/19 05:56:35;;;;;;;56.65;24.27;;;;;;;8.47;100.00;101466.53;5062650;28;20020;-77
2021/04/19 05:59:19;;;;;;;28.92;14.35;;;;;;;8.42;100.00;101464.06;5059332;28;20063;-77
2021/04/19 06:01:48;;;;;;;24.17;12.40;;;;;;;8.46;100.00;101467.44;5050305;28;20039;-77
2021/04/19 06:04:35;;;;;;;24.08;11.60;;;;;;;8.57;100.00;101470.56;5063625;28;20024;-77
2021/04/19 06:07:23;;;;;;;29.55;13.27;;;;;;;8.51;100.00;101487.75;5062652;28;20441;-77
2021/04/19 06:10:21;;;;;;;26.45;12.55;;;;;;;8.48;100.00;101489.66;5055790;28;20191;-79
2021/04/19 06:12:54;;;;;;;26.17;12.13;;;;;;;8.48;100.00;101495.91;5080949;28;20025;-78
2021/04/19 06:15:22;;;;;;;24.75;11.82;;;;;;;8.43;100.00;101503.25;5062664;28;20070;-79
2021/04/19 06:17:50;;;;;;;22.65;12.90;;;;;;;8.38;100.00;101502.59;5049403;28;20040;-78
2021/04/19 06:20:19;;;;;;;24.25;13.40;;;;;;;8.42;100.00;101496.16;5060766;28;20105;-78
2021/04/19 06:22:49;;;;;;;22.80;12.00;;;;;;;8.34;100.00;101490.25;5043376;28;20032;-77
2021/04/19 06:25:16;;;;;;;23.02;12.43;;;;;;;8.35;100.00;101500.03;5054085;28;20035;-76
2021/04/19 06:27:42;;;;;;;26.13;12.45;;;;;;;8.31;100.00;101497.56;5063944;28;20075;-78
2021/04/19 06:30:13;;;;;;;28.83;13.15;;;;;;;8.38;100.00;101499.03;5066892;28;20067;-79
2021/04/19 06:32:40;;;;;;;29.15;13.07;;;;;;;8.36;100.00;101495.53;5065187;28;20028;-79
2021/04/19 06:35:07;;;;;;;34.75;20.73;;;;;;;8.36;100.00;101495.53;5061202;28;20041;-77
2021/04/19 06:37:32;;;;;;;33.50;16.90;;;;;;;8.33;100.00;101482.31;5064591;28;20037;-76
2021/04/19 06:39:58;;;;;;;35.75;15.25;;;;;;;8.34;100.00;101482.22;5065206;28;20040;-77
2021/04/19 06:42:24;;;;;;;41.60;20.30;;;;;;;8.35;100.00;101485.78;5066029;28;20033;-77
2021/04/19 06:44:49;;;;;;;38.97;18.75;;;;;;;8.36;100.00;101492.88;5065337;28;20024;-77
2021/04/19 06:47:17;;;;;;;41.50;23.70;;;;;;;8.35;100.00;101485.78;5052982;28;20040;-77
2021/04/19 06:49:46;;;;;;;52.90;27.02;;;;;;;8.38;100.00;101493.69;5069066;28;20047;-77
2021/04/19 06:52:12;;;;;;;30.85;14.38;;;;;;;8.50;100.00;101490.47;5070099;28;20063;-78
2021/04/19 06:54:38;;;;;;;25.38;13.70;;;;;;;8.47;100.00;101485.25;5066887;28;20041;-77
2021/04/19 06:57:07;;;;;;;46.72;23.80;;;;;;;8.41;100.00;101482.84;5064674;28;20028;-78
2021/04/19 06:59:33;;;;;;;36.67;17.67;;;;;;;8.45;100.00;101484.47;5067941;28;20029;-78
2021/04/19 07:02:00;;;;;;;37.30;20.48;;;;;;;8.47;100.00;101488.78;5060673;28;20025;-77
2021/04/19 07:04:27;;;;;;;44.55;19.75;;;;;;;8.52;100.00;101475.22;5068037;28;20036;-77
2021/04/19 07:06:54;;;;;;;38.03;18.13;;;;;;;8.56;100.00;101482.19;5065315;28;20073;-77
2021/04/19 07:09:28;;;;;;;30.13;15.27;;;;;;;8.59;100.00;101479.34;5067928;28;20439;-78
2021/04/19 07:11:57;;;;;;;35.38;19.02;;;;;;;8.57;100.00;101481.25;5047823;28;20415;-77
2021/04/19 07:14:25;;;;;;;32.75;17.48;;;;;;;8.51;100.00;101477.03;5067698;28;20123;-78
2021/04/19 07:16:51;;;;;;;31.13;16.38;;;;;;;8.60;100.00;101478.44;5051845;28;20032;-77
2021/04/19 07:19:18;;;;;;;28.92;15.75;;;;;;;8.69;100.00;101475.38;5065906;28;20231;-78
2021/04/19 07:21:44;;;;;;;37.65;18.15;;;;;;;8.70;100.00;101479.75;5068757;28;20036;-78
2021/04/19 07:24:10;;;;;;;40.58;18.65;;;;;;;8.63;100.00;101483.66;5058943;28;20033;-76
2021/04/19 07:26:36;;;;;;;36.42;19.20;;;;;;;8.57;100.00;101478.56;5060514;28;20043;-78
2021/04/19 07:29:02;;;;;;;31.10;15.20;;;;;;;8.67;100.00;101468.31;5065902;28;20032;-76
2021/04/19 07:31:28;;;;;;;41.55;17.02;;;;;;;8.59;100.00;101475.81;5065420;28;20032;-78
2021/04/19 07:33:53;;;;;;;30.52;16.55;;;;;;;8.64;100.00;101474.66;5068670;28;20067;-78
2021/04/19 07:36:27;;;;;;;31.05;15.27;;;;;;;8.65;100.00;101470.19;5060260;28;20025;-78
2021/04/19 07:38:55;;;;;;;35.00;18.27;;;;;;;8.75;100.00;101476.91;5068113;28;20067;-77
2021/04/19 07:41:22;;;;;;;34.65;17.05;;;;;;;8.83;100.00;101472.91;5064565;28;20036;-78
2021/04/19 07:43:48;;;;;;;31.60;18.02;;;;;;;8.72;100.00;101475.22;5064908;28;20056;-78
2021/04/19 07:46:16;;;;;;;37.20;18.52;;;;;;;8.75;100.00;101466.19;5062483;28;20035;-78
2021/04/19 07:48:46;;;;;;;35.33;18.90;;;;;;;8.79;100.00;101479.34;5071271;28;20500;-77
2021/04/19 07:51:25;;;;;;;33.55;19.30;;;;;;;8.81;100.00;101472.13;5071916;28;20033;-78
2021/04/19 07:54:11;;;;;;;31.42;18.50;;;;;;;8.81;100.00;101468.59;5070476;28;20032;-77
2021/04/19 07:56:37;;;;;;;35.45;17.15;;;;;;;8.82;100.00;101459.63;5066805;28;20033;-78
2021/04/19 07:59:32;;;;;;;36.20;18.17;;;;;;;8.86;100.00;101459.41;5063343;28;20540;-77
2021/04/19 08:02:18;;;;;;;41.47;19.67;;;;;;;8.83;100.00;101462.19;5072356;28;20050;-77
2021/04/19 08:04:49;;;;;;;34.45;17.95;;;;;;;8.81;100.00;101458.75;5072751;28;20504;-79
2021/04/19 08:07:19;;;;;;;39.20;19.27;;;;;;;8.85;100.00;101462.16;5071353;28;20116;-76
2021/04/19 08:10:01;;;;;;;33.40;20.20;;;;;;;8.88;100.00;101460.22;5052428;28;20028;-77
2021/04/19 08:12:38;;;;;;;38.58;19.38;;;;;;;8.89;100.00;101459.25;5063928;28;20039;-78
2021/04/19 08:15:10;;;;;;;34.17;19.58;;;;;;;8.90;100.00;101460.13;5067935;28;20094;-77
2021/04/19 08:17:36;;;;;;;35.00;18.65;;;;;;;8.96;100.00;101461.66;5056557;28;20428;-78
2021/04/19 08:20:12;;;;;;;36.70;19.42;;;;;;;9.00;100.00;101471.28;5067905;28;20041;-78
2021/04/19 08:22:38;;;;;;;35.40;18.83;;;;;;;9.02;100.00;101466.72;5072558;28;20036;-77
2021/04/19 08:25:12;;;;;;;41.58;20.42;;;;;;;9.07;100.00;101468.28;5064210;28;20036;-78
2021/04/19 08:27:42;;;;;;;39.92;21.88;;;;;;;9.21;100.00;101467.59;5071658;28;20117;-79
2021/04/19 08:30:13;;;;;;;45.70;22.77;;;;;;;9.20;100.00;101469.41;5055697;28;20043;-78
2021/04/19 08:32:38;;;;;;;39.00;20.90;;;;;;;9.26;100.00;101468.25;5056505;28;20086;-77
2021/04/19 08:35:08;;;;;;;36.95;21.92;;;;;;;9.34;100.00;101463.41;5072474;28;20777;-77
2021/04/19 08:37:34;;;;;;;36.78;20.30;;;;;;;9.39;100.00;101464.06;5073788;28;20145;-77
2021/04/19 08:40:01;;;;;;;42.92;22.80;;;;;;;9.37;100.00;101475.81;5073375;28;20097;-78
2021/04/19 08:42:28;;;;;;;46.63;21.27;;;;;;;9.47;100.00;101477.97;5074011;28;20028;-77
2021/04/19 08:44:58;;;;;;;37.65;20.83;;;;;;;9.45;100.00;101477.16;5071145;28;20625;-77
2021/04/19 08:47:27;;;;;;;35.67;20.38;;;;;;;9.41;100.00;101482.75;5067261;28;20028;-82
2021/04/19 08:49:55;;;;;;;33.20;20.35;;;;;;;9.48;100.00;101477.03;5087630;28;20029;-77
2021/04/19 08:52:20;;;;;;;39.17;19.70;;;;;;;9.48;100.00;101482.41;5071535;28;20111;-81
2021/04/19 08:54:46;;;;;;;34.60;20.23;;;;;;;9.42;100.00;101487.19;5067084;28;20535;-78
2021/04/19 08:57:11;;;;;;;34.22;19.00;;;;;;;9.44;100.00;101494.22;5066039;28;20024;-79
2021/04/19 08:59:38;;;;;;;45.28;21.42;;;;;;;9.49;100.00;101486.81;5070996;28;20040;-79
2021/04/19 09:02:04;;;;;;;34.78;20.42;;;;;;;9.53;100.00;101490.22;5080224;28;20064;-77
2021/04/19 09:04:30;;;;;;;39.17;20.27;;;;;;;9.60;100.00;101495.22;5067115;28;20028;-78
2021/04/19 09:06:57;;;;;;;36.40;21.02;;;;;;;9.62;100.00;101492.47;5076743;28;20033;-78
2021/04/19 09:09:32;;;;;;;41.60;20.80;;;;;;;9.55;100.00;101491.00;5070259;28;20111;-77
2021/04/19 09:12:10;;;;;;;32.20;19.45;;;;;;;9.67;100.00;101496.66;5068530;28;20099;-77
2021/04/19 09:14:37;;;;;;;36.92;21.95;;;;;;;9.60;100.00;101497.91;5061016;28;20029;-77
2021/04/19 09:17:03;;;;;;;42.53;22.98;;;;;;;9.50;100.00;101493.94;5051377;28;20028;-78
2021/04/19 09:19:30;;;;;;;36.67;20.50;;;;;;;9.53;100.00;101496.44;5067598;28;20085;-78
2021/04/19 09:22:13;;;;;;;37.83;21.05;;;;;;;9.53;100.00;101493.75;5066011;28;20036;-78
2021/04/19 09:25:05;;;;;;;41.58;23.33;;;;;;;9.48;100.00;101506.50;5066246;28;20025;-77
2021/04/19 09:27:57;;;;;;;38.65;22.65;;;;;;;9.59;100.00;101503.31;5069443;28;20372;-77
2021/04/19 09:30:23;;;;;;;41.05;21.98;;;;;;;9.67;100.00;101507.38;5084361;28;20123;-77
2021/04/19 09:33:07;;;;;;;41.20;21.92;;;;;;;9.67;100.00;101501.16;5051595;28;20120;-79
2021/04/19 09:35:38;;;;;;;42.65;23.13;;;;;;;9.65;100.00;101508.38;5063382;28;20115;-77
2021/04/19 09:38:04;;;;;;;46.50;23.45;;;;;;;9.55;100.00;101502.59;5067885;28;20113;-79
2021/04/19 09:40:30;;;;;;;45.92;25.05;;;;;;;9.58;100.00;101504.25;5066078;28;20042;-79
2021/04/19 09:43:06;;;;;;;48.38;23.55;;;;;;;9.64;100.00;101503.97;5064824;28;20452;-79
2021/04/19 09:45:52;;;;;;;46.45;24.65;;;;;;;9.43;100.00;101521.94;5067923;28;20129;-77
2021/04/19 09:48:30;;;;;;;44.70;24.27;;;;;;;9.49;100.00;101529.69;5053378;28;20040;-79
2021/04/19 09:51:02;;;;;;;40.55;23.83;;;;;;;9.49;100.00;101521.66;5051723;28;20805;-78
2021/04/19 09:53:30;;;;;;;46.95;24.77;;;;;;;9.37;100.00;101511.53;5070091;28;20032;-77
2021/04/19 09:55:57;;;;;;;47.13;26.10;;;;;;;9.36;100.00;101515.13;5061942;28;20033;-77
2021/04/19 09:58:23;;;;;;;52.72;27.73;;;;;;;9.44;100.00;101499.56;5064626;28;20029;-78
2021/04/19 10:00:59;;;;;;;44.33;25.65;;;;;;;9.61;100.00;101502.31;5070232;28;20028;-78
2021/04/19 10:03:25;;;;;;;54.05;25.38;;;;;;;9.80;100.00;101496.06;5067157;28;20037;-78
2021/04/19 10:05:52;;;;;;;49.35;25.65;;;;;;;9.89;100.00;101500.97;5046719;28;20197;-77
2021/04/19 10:08:22;;;;;;;51.53;25.75;;;;;;;10.03;100.00;101503.84;5066650;28;20107;-78
2021/04/19 10:10:55;;;;;;;51.03;26.70;;;;;;;10.09;100.00;101501.72;5068639;28;20110;-77
2021/04/19 10:13:37;;;;;;;45.10;26.27;;;;;;;10.35;100.00;101505.81;5066287;28;20036;-78
2021/04/19 10:16:12;;;;;;;45.67;25.25;;;;;;;10.43;100.00;101497.38;5071050;28;20512;-77
2021/04/19 10:18:40;;;;;;;52.58;24.67;;;;;;;10.47;100.00;101494.44;5066524;28;20158;-78
2021/04/19 10:21:08;;;;;;;46.20;25.40;;;;;;;10.54;100.00;101500.38;5070536;28;20436;-78
2021/04/19 10:23:41;;;;;;;51.30;26.13;;;;;;;10.58;100.00;101503.75;5054950;28;20028;-78
2021/04/19 10:26:08;;;;;;;46.53;25.58;;;;;;;10.76;100.00;101500.09;5047951;28;20086;-78
2021/04/19 10:28:42;;;;;;;48.13;25.05;;;;;;;10.74;100.00;101502.88;5063524;28;20037;-76
2021/04/19 10:31:21;;;;;;;43.83;24.10;;;;;;;10.76;100.00;101500.09;5068611;28;20036;-78
2021/04/19 10:33:52;;;;;;;36.45;22.40;;;;;;;10.69;100.00;101509.44;5051549;28;20034;-77
2021/04/19 10:36:26;;;;;;;36.85;21.83;;;;;;;10.76;100.00;101500.97;5066293;28;20480;-78
2021/04/19 10:38:54;;;;;;;35.55;21.08;;;;;;;10.83;100.00;101504.22;5067878;28;20033;-77
2021/04/19 10:41:33;;;;;;;35.70;22.50;;;;;;;10.97;100.00;101509.72;5069263;28;20031;-78
2021/04/19 10:43:59;;;;;;;39.08;22.63;;;;;;;11.15;100.00;101498.00;5073846;28;20024;-77
2021/04/19 10:46:31;;;;;;;41.05;22.52;;;;;;;11.36;100.00;101502.19;5067492;28;20093;-78
2021/04/19 10:49:00;;;;;;;36.05;22.23;;;;;;;11.40;100.00;101493.97;5068550;28;20033;-78
2021/04/19 10:51:28;;;;;;;39.08;22.58;;;;;;;11.54;100.00;101496.75;5071385;28;20028;-78
2021/04/19 10:53:54;;;;;;;38.50;22.27;;;;;;;11.56;100.00;101494.81;5057920;28;20481;-77
2021/04/19 10:56:22;;;;;;;39.42;22.30;;;;;;;11.57;99.34;101493.88;5064246;28;20725;-77
2021/04/19 10:58:49;;;;;;;39.10;23.13;;;;;;;11.45;98.90;101498.13;5052784;28;20035;-78
2021/04/19 11:01:20;;;;;;;43.05;23.40;;;;;;;11.51;98.67;101495.09;5073717;28;20429;-77
2021/04/19 11:03:47;;;;;;;37.83;22.33;;;;;;;11.52;96.27;101491.47;5052859;28;20032;-79
2021/04/19 11:06:15;;;;;;;36.15;21.77;;;;;;;11.42;96.24;101502.81;5084693;28;20032;-79
2021/04/19 11:08:54;;;;;;;45.72;24.55;;;;;;;11.39;97.47;101500.28;5070272;28;20133;-77
2021/04/19 11:11:39;;;;;;;43.47;24.23;;;;;;;11.33;98.65;101490.75;5065612;28;20029;-77
2021/04/19 11:14:14;;;;;;;41.38;25.35;;;;;;;11.35;98.53;101489.72;5058167;28;20038;-78
2021/04/19 11:16:48;;;;;;;39.63;23.90;;;;;;;11.48;97.33;101486.34;5070575;28;20415;-77
2021/04/19 11:19:41;;;;;;;38.80;24.02;;;;;;;11.49;98.01;101488.06;5065514;28;20029;-78
2021/04/19 11:22:23;;;;;;;39.47;23.05;;;;;;;11.58;98.70;101495.63;5072417;28;20035;-78
2021/04/19 11:24:49;;;;;;;42.80;23.98;;;;;;;11.72;98.12;101488.53;5056009;28;20127;-78
2021/04/19 11:27:20;;;;;;;40.67;23.90;;;;;;;11.88;97.96;101488.53;5075637;28;20029;-78
2021/04/19 11:29:46;;;;;;;33.92;21.08;;;;;;;12.21;96.62;101488.41;5074007;28;20863;-78